sensor_id;sensor_type;location;lat;lon;timestamp;P1;durP1;ratioP1;P2;durP2;ratioP2
52946;SDS011;68773;40.400;17.260;2023-05-17T00:02:17;10.52;;;1.90;;
52946;SDS011;68773;40.400;17.260;2023-05-17T00:04:43;8.45;;;1.38;;
52946;SDS011;68773;40.400;17.260;2023-05-17T00:07:11;4.72;;;1.40;;
52946;SDS011;68773;40.400;17.260;2023-05-17T00:09:37;8.35;;;1.40;;
52946;SDS011;68773;40.400;17.260;2023-05-17T00:12:02;3.53;;;1.50;;
52946;SDS011;68773;40.400;17.260;2023-05-17T00:14:28;4.85;;;1.10;;
52946;SDS011;68773;40.400;17.260;2023-05-17T00:16:54;8.88;;;1.58;;
52946;SDS011;68773;40.400;17.260;2023-05-17T00:19:20;4.88;;;1.33;;
52946;SDS011;68773;40.400;17.260;2023-05-17T00:21:46;7.18;;;1.27;;
52946;SDS011;68773;40.400;17.260;2023-05-17T00:24:11;8.85;;;1.35;;
52946;SDS011;68773;40.400;17.260;2023-05-17T00:26:37;2.80;;;1.30;;
52946;SDS011;68773;40.400;17.260;2023-05-17T00:29:03;5.47;;;1.20;;
52946;SDS011;68773;40.400;17.260;2023-05-17T00:31:29;7.20;;;1.40;;
52946;SDS011;68773;40.400;17.260;2023-05-17T00:33:55;5.95;;;1.33;;
52946;SDS011;68773;40.400;17.260;2023-05-17T00:36:20;6.38;;;1.63;;
52946;SDS011;68773;40.400;17.260;2023-05-17T00:38:46;5.55;;;1.25;;
52946;SDS011;68773;40.400;17.260;2023-05-17T00:41:12;5.90;;;1.48;;
52946;SDS011;68773;40.400;17.260;2023-05-17T00:43:38;5.03;;;1.40;;
52946;SDS011;68773;40.400;17.260;2023-05-17T00:46:04;3.33;;;1.02;;
52946;SDS011;68773;40.400;17.260;2023-05-17T00:48:29;4.53;;;1.20;;
52946;SDS011;68773;40.400;17.260;2023-05-17T00:50:55;6.63;;;1.30;;
52946;SDS011;68773;40.400;17.260;2023-05-17T00:53:22;7.90;;;1.17;;
52946;SDS011;68773;40.400;17.260;2023-05-17T00:55:49;7.82;;;1.67;;
52946;SDS011;68773;40.400;17.260;2023-05-17T00:58:16;9.48;;;1.65;;
52946;SDS011;68773;40.400;17.260;2023-05-17T01:00:41;11.82;;;1.70;;
52946;SDS011;68773;40.400;17.260;2023-05-17T01:03:08;6.97;;;1.73;;
52946;SDS011;68773;40.400;17.260;2023-05-17T01:05:34;6.75;;;1.33;;
52946;SDS011;68773;40.400;17.260;2023-05-17T01:08:00;5.55;;;1.65;;
52946;SDS011;68773;40.400;17.260;2023-05-17T01:10:36;12.82;;;2.35;;
52946;SDS011;68773;40.400;17.260;2023-05-17T01:13:14;10.02;;;1.60;;
52946;SDS011;68773;40.400;17.260;2023-05-17T01:15:52;6.50;;;2.03;;
52946;SDS011;68773;40.400;17.260;2023-05-17T01:18:40;8.80;;;2.72;;
52946;SDS011;68773;40.400;17.260;2023-05-17T01:21:34;9.88;;;2.85;;
52946;SDS011;68773;40.400;17.260;2023-05-17T01:26:57;8.77;;;2.20;;
52946;SDS011;68773;40.400;17.260;2023-05-17T01:29:25;8.90;;;2.42;;
52946;SDS011;68773;40.400;17.260;2023-05-17T01:31:53;10.98;;;2.38;;
52946;SDS011;68773;40.400;17.260;2023-05-17T01:34:24;8.95;;;2.55;;
52946;SDS011;68773;40.400;17.260;2023-05-17T01:36:51;13.88;;;3.65;;
52946;SDS011;68773;40.400;17.260;2023-05-17T01:39:17;9.30;;;2.50;;
52946;SDS011;68773;40.400;17.260;2023-05-17T01:41:44;2.67;;;1.55;;
52946;SDS011;68773;40.400;17.260;2023-05-17T01:46:44;5.43;;;1.40;;
52946;SDS011;68773;40.400;17.260;2023-05-17T01:49:22;10.68;;;1.58;;
52946;SDS011;68773;40.400;17.260;2023-05-17T01:54:22;3.42;;;1.38;;
52946;SDS011;68773;40.400;17.260;2023-05-17T01:56:56;9.20;;;1.48;;
52946;SDS011;68773;40.400;17.260;2023-05-17T01:59:23;5.95;;;1.90;;
52946;SDS011;68773;40.400;17.260;2023-05-17T02:01:56;7.70;;;2.63;;
52946;SDS011;68773;40.400;17.260;2023-05-17T02:04:30;11.20;;;2.80;;
52946;SDS011;68773;40.400;17.260;2023-05-17T02:06:56;8.50;;;2.67;;
52946;SDS011;68773;40.400;17.260;2023-05-17T02:09:22;8.48;;;2.50;;
52946;SDS011;68773;40.400;17.260;2023-05-17T02:11:48;12.00;;;2.70;;
52946;SDS011;68773;40.400;17.260;2023-05-17T02:14:13;10.35;;;3.22;;
52946;SDS011;68773;40.400;17.260;2023-05-17T02:16:39;12.82;;;3.58;;
52946;SDS011;68773;40.400;17.260;2023-05-17T02:19:05;18.48;;;4.75;;
52946;SDS011;68773;40.400;17.260;2023-05-17T02:21:33;10.07;;;4.22;;
52946;SDS011;68773;40.400;17.260;2023-05-17T02:23:59;16.20;;;4.13;;
52946;SDS011;68773;40.400;17.260;2023-05-17T02:26:25;16.23;;;4.78;;
52946;SDS011;68773;40.400;17.260;2023-05-17T02:28:51;15.38;;;4.35;;
52946;SDS011;68773;40.400;17.260;2023-05-17T02:31:17;8.00;;;2.25;;
52946;SDS011;68773;40.400;17.260;2023-05-17T02:33:43;8.68;;;1.80;;
52946;SDS011;68773;40.400;17.260;2023-05-17T02:36:09;7.80;;;1.75;;
52946;SDS011;68773;40.400;17.260;2023-05-17T02:38:35;9.18;;;1.40;;
52946;SDS011;68773;40.400;17.260;2023-05-17T02:41:00;3.17;;;1.30;;
52946;SDS011;68773;40.400;17.260;2023-05-17T02:43:27;7.15;;;1.48;;
52946;SDS011;68773;40.400;17.260;2023-05-17T02:45:53;9.93;;;1.90;;
52946;SDS011;68773;40.400;17.260;2023-05-17T02:48:19;10.77;;;1.88;;
52946;SDS011;68773;40.400;17.260;2023-05-17T02:50:44;5.40;;;1.52;;
52946;SDS011;68773;40.400;17.260;2023-05-17T02:53:10;5.00;;;1.40;;
52946;SDS011;68773;40.400;17.260;2023-05-17T02:55:36;4.47;;;1.35;;
52946;SDS011;68773;40.400;17.260;2023-05-17T02:58:02;3.67;;;1.45;;
52946;SDS011;68773;40.400;17.260;2023-05-17T03:00:28;8.02;;;1.63;;
52946;SDS011;68773;40.400;17.260;2023-05-17T03:02:54;10.90;;;2.10;;
52946;SDS011;68773;40.400;17.260;2023-05-17T03:05:20;9.88;;;2.80;;
52946;SDS011;68773;40.400;17.260;2023-05-17T03:07:45;11.77;;;2.72;;
52946;SDS011;68773;40.400;17.260;2023-05-17T03:10:11;9.68;;;2.58;;
52946;SDS011;68773;40.400;17.260;2023-05-17T03:12:37;11.85;;;3.08;;
52946;SDS011;68773;40.400;17.260;2023-05-17T03:15:02;11.43;;;3.30;;
52946;SDS011;68773;40.400;17.260;2023-05-17T03:17:28;14.00;;;3.75;;
52946;SDS011;68773;40.400;17.260;2023-05-17T03:19:54;11.77;;;3.10;;
52946;SDS011;68773;40.400;17.260;2023-05-17T03:22:20;14.40;;;3.17;;
52946;SDS011;68773;40.400;17.260;2023-05-17T03:24:46;8.82;;;3.20;;
52946;SDS011;68773;40.400;17.260;2023-05-17T03:27:12;14.27;;;3.28;;
52946;SDS011;68773;40.400;17.260;2023-05-17T03:29:37;16.75;;;3.03;;
52946;SDS011;68773;40.400;17.260;2023-05-17T03:32:03;12.70;;;3.13;;
52946;SDS011;68773;40.400;17.260;2023-05-17T03:34:29;17.23;;;3.05;;
52946;SDS011;68773;40.400;17.260;2023-05-17T03:36:55;10.90;;;3.03;;
52946;SDS011;68773;40.400;17.260;2023-05-17T03:39:20;12.65;;;2.58;;
52946;SDS011;68773;40.400;17.260;2023-05-17T03:41:46;15.70;;;3.20;;
52946;SDS011;68773;40.400;17.260;2023-05-17T03:44:12;6.60;;;2.13;;
52946;SDS011;68773;40.400;17.260;2023-05-17T03:46:37;11.95;;;2.65;;
52946;SDS011;68773;40.400;17.260;2023-05-17T03:49:03;13.07;;;3.00;;
52946;SDS011;68773;40.400;17.260;2023-05-17T03:51:29;11.52;;;3.47;;
52946;SDS011;68773;40.400;17.260;2023-05-17T03:53:58;9.00;;;2.80;;
52946;SDS011;68773;40.400;17.260;2023-05-17T03:56:24;14.82;;;2.97;;
52946;SDS011;68773;40.400;17.260;2023-05-17T03:58:50;6.78;;;2.80;;
52946;SDS011;68773;40.400;17.260;2023-05-17T04:01:16;8.85;;;2.88;;
52946;SDS011;68773;40.400;17.260;2023-05-17T04:03:44;9.93;;;3.05;;
52946;SDS011;68773;40.400;17.260;2023-05-17T04:06:12;9.18;;;2.90;;
52946;SDS011;68773;40.400;17.260;2023-05-17T04:08:38;13.63;;;3.92;;
52946;SDS011;68773;40.400;17.260;2023-05-17T04:11:04;10.88;;;3.05;;
52946;SDS011;68773;40.400;17.260;2023-05-17T04:13:39;16.73;;;2.67;;
52946;SDS011;68773;40.400;17.260;2023-05-17T04:16:09;7.68;;;3.17;;
52946;SDS011;68773;40.400;17.260;2023-05-17T04:18:34;10.88;;;2.80;;
52946;SDS011;68773;40.400;17.260;2023-05-17T04:21:01;10.70;;;2.50;;
52946;SDS011;68773;40.400;17.260;2023-05-17T04:23:28;13.80;;;2.63;;
52946;SDS011;68773;40.400;17.260;2023-05-17T04:25:54;16.35;;;2.80;;
52946;SDS011;68773;40.400;17.260;2023-05-17T04:28:22;3.97;;;2.15;;
52946;SDS011;68773;40.400;17.260;2023-05-17T04:30:48;8.18;;;2.45;;
52946;SDS011;68773;40.400;17.260;2023-05-17T04:33:14;7.28;;;2.05;;
52946;SDS011;68773;40.400;17.260;2023-05-17T04:35:40;7.70;;;1.92;;
52946;SDS011;68773;40.400;17.260;2023-05-17T04:38:06;10.25;;;1.92;;
52946;SDS011;68773;40.400;17.260;2023-05-17T04:40:33;6.40;;;2.03;;
52946;SDS011;68773;40.400;17.260;2023-05-17T04:43:00;6.38;;;1.95;;
52946;SDS011;68773;40.400;17.260;2023-05-17T04:45:26;5.95;;;1.88;;
52946;SDS011;68773;40.400;17.260;2023-05-17T04:47:52;5.97;;;1.60;;
52946;SDS011;68773;40.400;17.260;2023-05-17T04:50:18;6.05;;;1.88;;
52946;SDS011;68773;40.400;17.260;2023-05-17T04:52:45;6.00;;;2.00;;
52946;SDS011;68773;40.400;17.260;2023-05-17T04:55:11;8.45;;;1.80;;
52946;SDS011;68773;40.400;17.260;2023-05-17T04:57:37;8.30;;;1.92;;
52946;SDS011;68773;40.400;17.260;2023-05-17T05:00:03;7.07;;;1.83;;
52946;SDS011;68773;40.400;17.260;2023-05-17T05:02:36;5.53;;;1.50;;
52946;SDS011;68773;40.400;17.260;2023-05-17T05:05:02;6.50;;;1.75;;
52946;SDS011;68773;40.400;17.260;2023-05-17T05:07:29;7.13;;;1.65;;
52946;SDS011;68773;40.400;17.260;2023-05-17T05:09:55;10.38;;;2.28;;
52946;SDS011;68773;40.400;17.260;2023-05-17T05:12:21;6.18;;;1.50;;
52946;SDS011;68773;40.400;17.260;2023-05-17T05:14:47;4.30;;;1.60;;
52946;SDS011;68773;40.400;17.260;2023-05-17T05:17:12;5.38;;;1.63;;
52946;SDS011;68773;40.400;17.260;2023-05-17T05:19:38;4.25;;;1.75;;
52946;SDS011;68773;40.400;17.260;2023-05-17T05:22:04;5.50;;;1.70;;
52946;SDS011;68773;40.400;17.260;2023-05-17T05:24:29;4.75;;;1.88;;
52946;SDS011;68773;40.400;17.260;2023-05-17T05:26:55;5.30;;;1.42;;
52946;SDS011;68773;40.400;17.260;2023-05-17T05:29:21;5.97;;;1.67;;
52946;SDS011;68773;40.400;17.260;2023-05-17T05:31:46;5.25;;;1.55;;
52946;SDS011;68773;40.400;17.260;2023-05-17T05:34:12;4.45;;;1.30;;
52946;SDS011;68773;40.400;17.260;2023-05-17T05:36:38;4.53;;;1.60;;
52946;SDS011;68773;40.400;17.260;2023-05-17T05:39:04;8.50;;;1.63;;
52946;SDS011;68773;40.400;17.260;2023-05-17T05:41:30;4.40;;;1.42;;
52946;SDS011;68773;40.400;17.260;2023-05-17T05:43:55;6.55;;;1.70;;
52946;SDS011;68773;40.400;17.260;2023-05-17T05:46:21;5.13;;;1.70;;
52946;SDS011;68773;40.400;17.260;2023-05-17T05:48:47;6.30;;;1.80;;
52946;SDS011;68773;40.400;17.260;2023-05-17T05:51:13;4.07;;;1.33;;
52946;SDS011;68773;40.400;17.260;2023-05-17T05:53:38;5.22;;;1.48;;
52946;SDS011;68773;40.400;17.260;2023-05-17T05:56:04;6.80;;;1.45;;
52946;SDS011;68773;40.400;17.260;2023-05-17T05:58:30;6.90;;;1.70;;
52946;SDS011;68773;40.400;17.260;2023-05-17T06:00:56;7.10;;;1.40;;
52946;SDS011;68773;40.400;17.260;2023-05-17T06:03:22;3.80;;;1.50;;
52946;SDS011;68773;40.400;17.260;2023-05-17T06:05:48;3.75;;;1.50;;
52946;SDS011;68773;40.400;17.260;2023-05-17T06:08:14;4.47;;;1.10;;
52946;SDS011;68773;40.400;17.260;2023-05-17T06:10:40;4.22;;;1.45;;
52946;SDS011;68773;40.400;17.260;2023-05-17T06:13:06;3.78;;;1.15;;
52946;SDS011;68773;40.400;17.260;2023-05-17T06:15:31;5.85;;;1.50;;
52946;SDS011;68773;40.400;17.260;2023-05-17T06:17:57;3.42;;;1.10;;
52946;SDS011;68773;40.400;17.260;2023-05-17T06:20:23;4.28;;;1.60;;
52946;SDS011;68773;40.400;17.260;2023-05-17T06:22:49;7.18;;;1.50;;
52946;SDS011;68773;40.400;17.260;2023-05-17T06:25:15;9.63;;;1.30;;
52946;SDS011;68773;40.400;17.260;2023-05-17T06:27:41;2.72;;;1.17;;
52946;SDS011;68773;40.400;17.260;2023-05-17T06:30:07;3.88;;;1.35;;
52946;SDS011;68773;40.400;17.260;2023-05-17T06:32:34;2.65;;;1.00;;
52946;SDS011;68773;40.400;17.260;2023-05-17T06:35:00;3.70;;;1.33;;
52946;SDS011;68773;40.400;17.260;2023-05-17T06:37:26;8.30;;;1.98;;
52946;SDS011;68773;40.400;17.260;2023-05-17T06:39:52;4.50;;;1.45;;
52946;SDS011;68773;40.400;17.260;2023-05-17T06:42:25;4.28;;;1.17;;
52946;SDS011;68773;40.400;17.260;2023-05-17T06:44:51;3.17;;;1.20;;
52946;SDS011;68773;40.400;17.260;2023-05-17T06:47:16;4.72;;;1.50;;
52946;SDS011;68773;40.400;17.260;2023-05-17T06:49:42;3.25;;;1.10;;
52946;SDS011;68773;40.400;17.260;2023-05-17T06:52:08;5.57;;;2.00;;
52946;SDS011;68773;40.400;17.260;2023-05-17T06:54:34;5.25;;;1.65;;
52946;SDS011;68773;40.400;17.260;2023-05-17T06:57:02;5.75;;;1.58;;
52946;SDS011;68773;40.400;17.260;2023-05-17T06:59:28;3.05;;;1.20;;
52946;SDS011;68773;40.400;17.260;2023-05-17T07:01:54;6.82;;;1.65;;
52946;SDS011;68773;40.400;17.260;2023-05-17T07:04:20;6.60;;;1.50;;
52946;SDS011;68773;40.400;17.260;2023-05-17T07:06:46;2.38;;;1.60;;
52946;SDS011;68773;40.400;17.260;2023-05-17T07:09:12;6.40;;;1.90;;
52946;SDS011;68773;40.400;17.260;2023-05-17T07:11:38;7.00;;;1.80;;
52946;SDS011;68773;40.400;17.260;2023-05-17T07:14:04;8.20;;;1.90;;
52946;SDS011;68773;40.400;17.260;2023-05-17T07:16:29;5.18;;;1.55;;
52946;SDS011;68773;40.400;17.260;2023-05-17T07:18:55;7.28;;;1.73;;
52946;SDS011;68773;40.400;17.260;2023-05-17T07:21:21;8.35;;;1.80;;
52946;SDS011;68773;40.400;17.260;2023-05-17T07:23:48;6.78;;;2.35;;
52946;SDS011;68773;40.400;17.260;2023-05-17T07:26:14;4.80;;;1.65;;
52946;SDS011;68773;40.400;17.260;2023-05-17T07:28:42;4.85;;;1.40;;
52946;SDS011;68773;40.400;17.260;2023-05-17T07:31:08;3.03;;;1.67;;
52946;SDS011;68773;40.400;17.260;2023-05-17T07:33:35;14.02;;;2.33;;
52946;SDS011;68773;40.400;17.260;2023-05-17T07:36:02;6.40;;;1.90;;
52946;SDS011;68773;40.400;17.260;2023-05-17T07:38:28;3.25;;;1.70;;
52946;SDS011;68773;40.400;17.260;2023-05-17T07:40:54;5.75;;;1.55;;
52946;SDS011;68773;40.400;17.260;2023-05-17T07:43:19;5.22;;;2.10;;
52946;SDS011;68773;40.400;17.260;2023-05-17T07:45:45;7.90;;;1.80;;
52946;SDS011;68773;40.400;17.260;2023-05-17T07:48:11;11.15;;;2.00;;
52946;SDS011;68773;40.400;17.260;2023-05-17T07:50:37;5.25;;;1.70;;
52946;SDS011;68773;40.400;17.260;2023-05-17T07:53:03;8.23;;;2.00;;
52946;SDS011;68773;40.400;17.260;2023-05-17T07:55:29;6.45;;;2.25;;
52946;SDS011;68773;40.400;17.260;2023-05-17T07:57:54;9.52;;;1.67;;
52946;SDS011;68773;40.400;17.260;2023-05-17T08:00:20;4.68;;;1.75;;
52946;SDS011;68773;40.400;17.260;2023-05-17T08:02:47;5.63;;;1.92;;
52946;SDS011;68773;40.400;17.260;2023-05-17T08:05:12;6.18;;;1.70;;
52946;SDS011;68773;40.400;17.260;2023-05-17T08:07:38;6.47;;;1.80;;
52946;SDS011;68773;40.400;17.260;2023-05-17T08:10:04;5.38;;;1.88;;
52946;SDS011;68773;40.400;17.260;2023-05-17T08:12:30;5.50;;;1.80;;
52946;SDS011;68773;40.400;17.260;2023-05-17T08:14:56;6.65;;;2.08;;
52946;SDS011;68773;40.400;17.260;2023-05-17T08:17:22;4.93;;;1.75;;
52946;SDS011;68773;40.400;17.260;2023-05-17T08:19:47;7.53;;;2.00;;
52946;SDS011;68773;40.400;17.260;2023-05-17T08:22:14;6.50;;;1.98;;
52946;SDS011;68773;40.400;17.260;2023-05-17T08:24:40;10.98;;;4.53;;
52946;SDS011;68773;40.400;17.260;2023-05-17T08:27:06;9.88;;;3.50;;
52946;SDS011;68773;40.400;17.260;2023-05-17T08:29:31;5.88;;;1.90;;
52946;SDS011;68773;40.400;17.260;2023-05-17T08:31:57;5.72;;;2.03;;
52946;SDS011;68773;40.400;17.260;2023-05-17T08:34:23;8.00;;;2.00;;
52946;SDS011;68773;40.400;17.260;2023-05-17T08:36:49;7.78;;;2.25;;
52946;SDS011;68773;40.400;17.260;2023-05-17T08:39:14;5.40;;;2.17;;
52946;SDS011;68773;40.400;17.260;2023-05-17T08:41:40;4.30;;;2.17;;
52946;SDS011;68773;40.400;17.260;2023-05-17T08:44:06;4.38;;;1.52;;
52946;SDS011;68773;40.400;17.260;2023-05-17T08:46:32;4.70;;;1.90;;
52946;SDS011;68773;40.400;17.260;2023-05-17T08:49:00;6.10;;;1.73;;
52946;SDS011;68773;40.400;17.260;2023-05-17T08:51:29;5.85;;;1.95;;
52946;SDS011;68773;40.400;17.260;2023-05-17T08:53:56;7.55;;;2.05;;
52946;SDS011;68773;40.400;17.260;2023-05-17T08:56:22;5.47;;;2.10;;
52946;SDS011;68773;40.400;17.260;2023-05-17T08:58:54;7.57;;;2.20;;
52946;SDS011;68773;40.400;17.260;2023-05-17T09:01:20;6.63;;;2.22;;
52946;SDS011;68773;40.400;17.260;2023-05-17T09:03:48;6.82;;;2.40;;
52946;SDS011;68773;40.400;17.260;2023-05-17T09:06:15;10.68;;;2.50;;
52946;SDS011;68773;40.400;17.260;2023-05-17T09:08:42;6.75;;;2.40;;
52946;SDS011;68773;40.400;17.260;2023-05-17T09:11:08;7.35;;;2.63;;
52946;SDS011;68773;40.400;17.260;2023-05-17T09:13:34;6.28;;;2.22;;
52946;SDS011;68773;40.400;17.260;2023-05-17T09:16:01;6.20;;;2.38;;
52946;SDS011;68773;40.400;17.260;2023-05-17T09:18:29;8.48;;;3.72;;
52946;SDS011;68773;40.400;17.260;2023-05-17T09:21:00;5.38;;;2.90;;
52946;SDS011;68773;40.400;17.260;2023-05-17T09:23:28;8.93;;;2.35;;
52946;SDS011;68773;40.400;17.260;2023-05-17T09:26:02;7.13;;;2.30;;
52946;SDS011;68773;40.400;17.260;2023-05-17T09:28:35;8.63;;;2.88;;
52946;SDS011;68773;40.400;17.260;2023-05-17T09:31:05;12.70;;;3.42;;
52946;SDS011;68773;40.400;17.260;2023-05-17T09:33:32;7.32;;;2.65;;
52946;SDS011;68773;40.400;17.260;2023-05-17T09:35:59;5.30;;;2.40;;
52946;SDS011;68773;40.400;17.260;2023-05-17T09:38:26;9.57;;;2.70;;
52946;SDS011;68773;40.400;17.260;2023-05-17T09:40:52;5.47;;;3.25;;
52946;SDS011;68773;40.400;17.260;2023-05-17T09:43:21;5.75;;;2.67;;
52946;SDS011;68773;40.400;17.260;2023-05-17T09:45:56;5.40;;;3.20;;
52946;SDS011;68773;40.400;17.260;2023-05-17T09:48:22;4.90;;;2.35;;
52946;SDS011;68773;40.400;17.260;2023-05-17T09:50:50;5.43;;;2.17;;
52946;SDS011;68773;40.400;17.260;2023-05-17T09:55:52;4.22;;;2.17;;
52946;SDS011;68773;40.400;17.260;2023-05-17T09:58:23;6.55;;;2.60;;
52946;SDS011;68773;40.400;17.260;2023-05-17T10:00:50;8.68;;;2.35;;
52946;SDS011;68773;40.400;17.260;2023-05-17T10:03:17;5.72;;;2.75;;
52946;SDS011;68773;40.400;17.260;2023-05-17T10:05:43;3.55;;;1.80;;
52946;SDS011;68773;40.400;17.260;2023-05-17T10:08:14;4.65;;;1.92;;
52946;SDS011;68773;40.400;17.260;2023-05-17T10:10:45;6.53;;;1.70;;
52946;SDS011;68773;40.400;17.260;2023-05-17T10:13:14;10.57;;;2.10;;
52946;SDS011;68773;40.400;17.260;2023-05-17T10:15:43;8.15;;;2.30;;
52946;SDS011;68773;40.400;17.260;2023-05-17T10:18:10;6.65;;;2.42;;
52946;SDS011;68773;40.400;17.260;2023-05-17T10:20:37;4.05;;;2.17;;
52946;SDS011;68773;40.400;17.260;2023-05-17T10:23:04;4.15;;;1.90;;
52946;SDS011;68773;40.400;17.260;2023-05-17T10:25:31;8.35;;;2.33;;
52946;SDS011;68773;40.400;17.260;2023-05-17T10:27:57;9.57;;;2.30;;
52946;SDS011;68773;40.400;17.260;2023-05-17T10:30:24;7.60;;;2.40;;
52946;SDS011;68773;40.400;17.260;2023-05-17T10:32:52;5.82;;;2.10;;
52946;SDS011;68773;40.400;17.260;2023-05-17T10:35:18;7.53;;;2.97;;
52946;SDS011;68773;40.400;17.260;2023-05-17T10:37:45;8.13;;;2.33;;
52946;SDS011;68773;40.400;17.260;2023-05-17T10:40:11;5.43;;;2.55;;
52946;SDS011;68773;40.400;17.260;2023-05-17T10:42:48;8.57;;;3.22;;
52946;SDS011;68773;40.400;17.260;2023-05-17T10:45:18;8.18;;;2.88;;
52946;SDS011;68773;40.400;17.260;2023-05-17T10:47:46;8.75;;;2.83;;
52946;SDS011;68773;40.400;17.260;2023-05-17T10:50:19;7.18;;;2.50;;
52946;SDS011;68773;40.400;17.260;2023-05-17T10:52:49;8.35;;;2.80;;
52946;SDS011;68773;40.400;17.260;2023-05-17T10:55:19;4.88;;;2.25;;
52946;SDS011;68773;40.400;17.260;2023-05-17T11:00:50;8.15;;;2.58;;
52946;SDS011;68773;40.400;17.260;2023-05-17T11:03:36;6.15;;;2.60;;
52946;SDS011;68773;40.400;17.260;2023-05-17T11:06:10;9.18;;;3.17;;
52946;SDS011;68773;40.400;17.260;2023-05-17T11:11:55;6.70;;;2.30;;
52946;SDS011;68773;40.400;17.260;2023-05-17T11:15:32;5.95;;;2.45;;
52946;SDS011;68773;40.400;17.260;2023-05-17T11:22:39;10.85;;;4.75;;
52946;SDS011;68773;40.400;17.260;2023-05-17T11:25:15;8.57;;;4.00;;
52946;SDS011;68773;40.400;17.260;2023-05-17T11:27:45;12.55;;;4.45;;
52946;SDS011;68773;40.400;17.260;2023-05-17T11:30:28;12.85;;;5.90;;
52946;SDS011;68773;40.400;17.260;2023-05-17T11:33:00;11.27;;;3.83;;
52946;SDS011;68773;40.400;17.260;2023-05-17T11:40:41;18.85;;;8.93;;
52946;SDS011;68773;40.400;17.260;2023-05-17T11:43:11;21.15;;;9.52;;
52946;SDS011;68773;40.400;17.260;2023-05-17T11:45:41;13.48;;;5.75;;
52946;SDS011;68773;40.400;17.260;2023-05-17T11:48:08;11.40;;;4.80;;
52946;SDS011;68773;40.400;17.260;2023-05-17T11:50:36;8.75;;;4.15;;
52946;SDS011;68773;40.400;17.260;2023-05-17T11:53:04;10.07;;;4.13;;
52946;SDS011;68773;40.400;17.260;2023-05-17T11:55:31;8.88;;;3.60;;
52946;SDS011;68773;40.400;17.260;2023-05-17T11:58:08;13.05;;;5.47;;
52946;SDS011;68773;40.400;17.260;2023-05-17T12:00:35;14.00;;;4.72;;
52946;SDS011;68773;40.400;17.260;2023-05-17T12:06:00;8.50;;;2.92;;
52946;SDS011;68773;40.400;17.260;2023-05-17T12:08:26;7.80;;;2.70;;
52946;SDS011;68773;40.400;17.260;2023-05-17T12:10:52;10.60;;;2.78;;
52946;SDS011;68773;40.400;17.260;2023-05-17T12:13:20;8.23;;;2.28;;
52946;SDS011;68773;40.400;17.260;2023-05-17T12:15:53;8.07;;;2.60;;
52946;SDS011;68773;40.400;17.260;2023-05-17T12:21:23;9.02;;;2.63;;
52946;SDS011;68773;40.400;17.260;2023-05-17T12:23:52;13.18;;;3.05;;
52946;SDS011;68773;40.400;17.260;2023-05-17T12:26:18;9.30;;;3.00;;
52946;SDS011;68773;40.400;17.260;2023-05-17T12:28:58;9.77;;;3.13;;
52946;SDS011;68773;40.400;17.260;2023-05-17T12:31:35;9.40;;;3.08;;
52946;SDS011;68773;40.400;17.260;2023-05-17T12:34:04;9.07;;;3.05;;
52946;SDS011;68773;40.400;17.260;2023-05-17T12:36:31;6.43;;;2.63;;
52946;SDS011;68773;40.400;17.260;2023-05-17T12:38:57;10.05;;;2.97;;
52946;SDS011;68773;40.400;17.260;2023-05-17T12:41:25;9.55;;;2.70;;
52946;SDS011;68773;40.400;17.260;2023-05-17T12:43:51;7.10;;;1.75;;
52946;SDS011;68773;40.400;17.260;2023-05-17T12:46:18;7.68;;;1.73;;
52946;SDS011;68773;40.400;17.260;2023-05-17T12:48:46;8.00;;;1.60;;
52946;SDS011;68773;40.400;17.260;2023-05-17T12:51:17;5.80;;;1.77;;
52946;SDS011;68773;40.400;17.260;2023-05-17T12:53:51;5.72;;;2.33;;
52946;SDS011;68773;40.400;17.260;2023-05-17T12:56:36;5.85;;;2.20;;
52946;SDS011;68773;40.400;17.260;2023-05-17T12:59:06;5.65;;;1.83;;
52946;SDS011;68773;40.400;17.260;2023-05-17T13:01:35;8.88;;;2.03;;
52946;SDS011;68773;40.400;17.260;2023-05-17T13:04:03;5.38;;;1.50;;
52946;SDS011;68773;40.400;17.260;2023-05-17T13:06:41;5.78;;;1.50;;
52946;SDS011;68773;40.400;17.260;2023-05-17T13:09:15;6.10;;;1.77;;
52946;SDS011;68773;40.400;17.260;2023-05-17T13:11:43;5.93;;;1.60;;
52946;SDS011;68773;40.400;17.260;2023-05-17T13:14:37;4.25;;;1.30;;
52946;SDS011;68773;40.400;17.260;2023-05-17T13:17:08;4.43;;;1.02;;
52946;SDS011;68773;40.400;17.260;2023-05-17T13:19:48;9.43;;;1.48;;
52946;SDS011;68773;40.400;17.260;2023-05-17T13:22:14;6.90;;;1.52;;
52946;SDS011;68773;40.400;17.260;2023-05-17T13:24:40;2.05;;;0.88;;
52946;SDS011;68773;40.400;17.260;2023-05-17T13:27:07;3.70;;;1.35;;
52946;SDS011;68773;40.400;17.260;2023-05-17T13:29:37;2.65;;;1.23;;
52946;SDS011;68773;40.400;17.260;2023-05-17T13:32:04;5.13;;;0.90;;
52946;SDS011;68773;40.400;17.260;2023-05-17T13:34:30;5.05;;;1.10;;
52946;SDS011;68773;40.400;17.260;2023-05-17T13:36:56;6.15;;;1.48;;
52946;SDS011;68773;40.400;17.260;2023-05-17T13:39:22;2.70;;;1.00;;
52946;SDS011;68773;40.400;17.260;2023-05-17T13:41:48;6.05;;;1.50;;
52946;SDS011;68773;40.400;17.260;2023-05-17T13:44:14;2.45;;;1.10;;
52946;SDS011;68773;40.400;17.260;2023-05-17T13:46:40;4.93;;;1.30;;
52946;SDS011;68773;40.400;17.260;2023-05-17T13:49:05;5.63;;;1.25;;
52946;SDS011;68773;40.400;17.260;2023-05-17T13:51:35;6.43;;;1.88;;
52946;SDS011;68773;40.400;17.260;2023-05-17T13:54:04;3.88;;;1.23;;
52946;SDS011;68773;40.400;17.260;2023-05-17T13:56:31;7.03;;;1.35;;
52946;SDS011;68773;40.400;17.260;2023-05-17T13:58:57;2.40;;;1.42;;
52946;SDS011;68773;40.400;17.260;2023-05-17T14:01:23;3.13;;;1.30;;
52946;SDS011;68773;40.400;17.260;2023-05-17T14:03:49;5.85;;;1.10;;
52946;SDS011;68773;40.400;17.260;2023-05-17T14:06:15;3.72;;;1.05;;
52946;SDS011;68773;40.400;17.260;2023-05-17T14:08:41;1.98;;;0.77;;
52946;SDS011;68773;40.400;17.260;2023-05-17T14:11:08;3.35;;;0.90;;
52946;SDS011;68773;40.400;17.260;2023-05-17T14:13:34;3.67;;;1.00;;
52946;SDS011;68773;40.400;17.260;2023-05-17T14:15:59;3.55;;;1.30;;
52946;SDS011;68773;40.400;17.260;2023-05-17T14:18:25;5.97;;;1.40;;
52946;SDS011;68773;40.400;17.260;2023-05-17T14:20:51;5.50;;;1.42;;
52946;SDS011;68773;40.400;17.260;2023-05-17T14:23:17;9.43;;;1.50;;
52946;SDS011;68773;40.400;17.260;2023-05-17T14:25:43;5.30;;;1.45;;
52946;SDS011;68773;40.400;17.260;2023-05-17T14:28:09;5.63;;;2.00;;
52946;SDS011;68773;40.400;17.260;2023-05-17T14:30:36;5.38;;;1.60;;
52946;SDS011;68773;40.400;17.260;2023-05-17T14:33:02;6.18;;;2.30;;
52946;SDS011;68773;40.400;17.260;2023-05-17T14:35:27;5.30;;;1.70;;
52946;SDS011;68773;40.400;17.260;2023-05-17T14:37:54;6.70;;;1.83;;
52946;SDS011;68773;40.400;17.260;2023-05-17T14:40:20;6.57;;;2.20;;
52946;SDS011;68773;40.400;17.260;2023-05-17T14:42:46;9.20;;;2.30;;
52946;SDS011;68773;40.400;17.260;2023-05-17T14:45:12;7.93;;;2.45;;
52946;SDS011;68773;40.400;17.260;2023-05-17T14:47:39;10.65;;;2.42;;
52946;SDS011;68773;40.400;17.260;2023-05-17T14:50:04;9.40;;;2.33;;
52946;SDS011;68773;40.400;17.260;2023-05-17T14:52:32;16.23;;;3.25;;
52946;SDS011;68773;40.400;17.260;2023-05-17T14:54:58;7.53;;;2.40;;
52946;SDS011;68773;40.400;17.260;2023-05-17T14:57:24;9.82;;;2.80;;
52946;SDS011;68773;40.400;17.260;2023-05-17T14:59:50;10.48;;;2.95;;
52946;SDS011;68773;40.400;17.260;2023-05-17T15:02:16;10.30;;;2.78;;
52946;SDS011;68773;40.400;17.260;2023-05-17T15:04:42;17.88;;;2.88;;
52946;SDS011;68773;40.400;17.260;2023-05-17T15:07:08;14.30;;;2.80;;